Time;durP1;ratioP1;P1;durP2;ratioP2;P2;SDS_P1;SDS_P2;PMS_P1;PMS_P2;Temp;Humidity;BMP_temperature;BMP_pressure;BME280_temperature;BME280_humidity;BME280_pressure;Samples;Min_cycle;Max_cycle;Signal;HPM_P1;HPM_P2
2022/06/01 00:00:19;;;;;;;;;;;;;;;;;;5077714;28;28363;-83
2022/06/01 00:02:47;;;;;;;;;;;;;;;;;;5078211;28;28505;-84
2022/06/01 00:05:12;;;;;;;;;;;;;;;;;;5078189;28;28492;-83
2022/06/01 00:07:37;;;;;;;;;;;;;;;;;;5077628;28;28513;-83
2022/06/01 00:10:02;;;;;;;;;;;;;;;;;;5077485;28;28426;-83
2022/06/01 00:12:29;;;;;;;;;;;;;;;;;;5077387;28;28326;-83
2022/06/01 00:14:54;;;;;;;;;;;;;;;;;;5077491;28;28477;-84
2022/06/01 00:17:20;;;;;;;;;;;;;;;;;;5077817;28;29273;-83
2022/06/01 00:19:45;;;;;;;;;;;;;;;;;;5077723;28;28407;-83
2022/06/01 00:22:17;;;;;;;;;;;;;;;;;;5077653;28;28529;-83
2022/06/01 00:24:42;;;;;;;;;;;;;;;;;;5080103;28;28521;-83
2022/06/01 00:27:07;;;;;;;;;;;;;;;;;;5092139;28;28476;-83
2022/06/01 00:29:32;;;;;;;;;;;;;;;;;;5082183;28;28558;-83
2022/06/01 00:31:57;;;;;;;;;;;;;;;;;;5095320;28;28393;-83
2022/06/01 00:34:22;;;;;;;;;;;;;;;;;;5078373;28;28311;-83
2022/06/01 00:36:47;;;;;;;;;;;;;;;;;;5077557;28;28725;-83
2022/06/01 00:39:12;;;;;;;;;;;;;;;;;;5077292;28;28404;-83
2022/06/01 00:41:38;;;;;;;;;;;;;;;;;;5077874;28;28433;-83
2022/06/01 00:44:12;;;;;;;;;;;;;;;;;;5078017;28;28370;-83
2022/06/01 00:46:37;;;;;;;;;;;;;;;;;;5076889;28;28602;-83
2022/06/01 00:49:02;;;;;;;;;;;;;;;;;;5077294;28;28524;-83
2022/06/01 00:51:27;;;;;;;;;;;;;;;;;;5077364;28;28521;-83
2022/06/01 00:53:53;;;;;;;;;;;;;;;;;;5078431;28;27848;-83
2022/06/01 00:56:18;;;;;;;;;;;;;;;;;;5077563;28;28380;-83
2022/06/01 00:58:43;;;;;;;;;;;;;;;;;;5077229;28;28378;-83
2022/06/01 01:01:08;;;;;;;;;;;;;;;;;;5077590;28;28508;-83
2022/06/01 01:03:36;;;;;;;;;;;;;;;;;;5078415;28;28512;-83
2022/06/01 01:06:01;;;;;;;;;;;;;;;;;;5076297;28;29390;-83
2022/06/01 01:08:27;;;;;;;;;;;;;;;;;;5077151;28;28319;-83
2022/06/01 01:10:54;;;;;;;;;;;;;;;;;;5077237;28;28318;-83
2022/06/01 01:13:19;;;;;;;;;;;;;;;;;;5066900;28;28433;-83
2022/06/01 01:15:51;;;;;;;;;;;;;;;;;;5076757;28;29202;-83
2022/06/01 01:18:17;;;;;;;;;;;;;;;;;;5076988;28;28956;-83
2022/06/01 01:20:42;;;;;;;;;;;;;;;;;;5078003;28;28396;-83
2022/06/01 01:23:09;;;;;;;;;;;;;;;;;;5076461;28;28695;-83
2022/06/01 01:25:34;;;;;;;;;;;;;;;;;;5076862;28;29518;-83
2022/06/01 01:27:59;;;;;;;;;;;;;;;;;;5076104;28;28478;-83
2022/06/01 01:30:25;;;;;;;;;;;;;;;;;;5076376;28;28525;-83
2022/06/01 01:32:50;;;;;;;;;;;;;;;;;;5077684;28;27795;-83
2022/06/01 01:35:15;;;;;;;;;;;;;;;;;;5076675;28;29190;-83
2022/06/01 01:37:43;;;;;;;;;;;;;;;;;;5076588;28;28058;-83
2022/06/01 01:40:08;;;;;;;;;;;;;;;;;;5076771;28;28528;-83
2022/06/01 01:42:36;;;;;;;;;;;;;;;;;;5076541;28;28386;-83
2022/06/01 01:45:01;;;;;;;;;;;;;;;;;;5093120;28;28416;-83
2022/06/01 01:47:28;;;;;;;;;;;;;;;;;;5085685;28;28497;-83
2022/06/01 01:49:53;;;;;;;;;;;;;;;;;;5076247;28;27672;-83
2022/06/01 01:52:18;;;;;;;;;;;;;;;;;;5076747;28;28315;-83
2022/06/01 01:54:43;;;;;;;;;;;;;;;;;;5076368;28;29285;-83
2022/06/01 01:57:09;;;;;;;;;;;;;;;;;;5075399;28;28505;-83
2022/06/01 01:59:34;;;;;;;;;;;;;;;;;;5075902;28;28422;-83
2022/06/01 02:02:02;;;;;;;;;;;;;;;;;;5075963;28;28587;-83
2022/06/01 02:07:10;;;;;;;;;;;;;;;;;;5076365;28;28514;-83
2022/06/01 02:15:03;;;;;;;;;;;;;;;;;;5075972;28;28389;-83
2022/06/01 02:17:28;;;;;;;;;;;;;;;;;;5077285;28;28286;-83
2022/06/01 02:19:53;;;;;;;;;;;;;;;;;;5075992;28;28411;-83
2022/06/01 02:22:18;;;;;;;;;;;;;;;;;;5076195;28;28394;-83
2022/06/01 02:24:43;;;;;;;;;;;;;;;;;;5075706;28;28739;-82
2022/06/01 02:27:09;;;;;;;;;;;;;;;;;;5075974;28;28658;-83
2022/06/01 02:29:34;;;;;;;;;;;;;;;;;;5075445;28;28330;-86
2022/06/01 02:31:59;;;;;;;;;;;;;;;;;;5075972;28;28481;-86
2022/06/01 02:34:24;;;;;;;;;;;;;;;;;;5075803;28;28626;-85
2022/06/01 02:36:50;;;;;;;;;;;;;;;;;;5087680;28;28461;-86
2022/06/01 02:39:15;;;;;;;;;;;;;;;;;;5083622;27;28566;-85
2022/06/01 02:44:24;;;;;;;;;;;;;;;;;;5075523;28;28429;-86
2022/06/01 02:46:50;;;;;;;;;;;;;;;;;;5087598;28;28440;-85
2022/06/01 02:49:17;;;;;;;;;;;;;;;;;;5096211;27;28244;-85
2022/06/01 02:51:42;;;;;;;;;;;;;;;;;;5082245;27;28349;-85
2022/06/01 02:54:08;;;;;;;;;;;;;;;;;;5075227;28;28342;-86
2022/06/01 02:56:34;;;;;;;;;;;;;;;;;;5084451;28;28973;-86
2022/06/01 02:58:59;;;;;;;;;;;;;;;;;;5088002;27;28417;-86
2022/06/01 03:01:24;;;;;;;;;;;;;;;;;;5075665;28;28472;-86
2022/06/01 03:03:50;;;;;;;;;;;;;;;;;;5075301;28;28920;-85
2022/06/01 03:06:15;;;;;;;;;;;;;;;;;;5081250;28;28609;-85
2022/06/01 03:08:40;;;;;;;;;;;;;;;;;;5095593;28;28342;-85
2022/06/01 03:11:05;;;;;;;;;;;;;;;;;;5096009;28;28421;-85
2022/06/01 03:13:30;;;;;;;;;;;;;;;;;;5091636;28;29502;-85
2022/06/01 03:15:55;;;;;;;;;;;;;;;;;;5078613;28;27908;-86
2022/06/01 03:18:21;;;;;;;;;;;;;;;;;;5076747;28;28480;-85
2022/06/01 03:20:46;;;;;;;;;;;;;;;;;;5075318;28;28358;-85
2022/06/01 03:23:11;;;;;;;;;;;;;;;;;;5074976;28;29292;-86
2022/06/01 03:25:37;;;;;;;;;;;;;;;;;;5075277;28;28520;-86
2022/06/01 03:28:02;;;;;;;;;;;;;;;;;;5095372;27;28501;-86
2022/06/01 03:30:28;;;;;;;;;;;;;;;;;;5094398;28;28489;-86
2022/06/01 03:32:53;;;;;;;;;;;;;;;;;;5074507;28;28956;-86
2022/06/01 03:35:18;;;;;;;;;;;;;;;;;;5075292;28;28398;-85
2022/06/01 03:37:43;;;;;;;;;;;;;;;;;;5092975;28;28310;-86
2022/06/01 03:40:08;;;;;;;;;;;;;;;;;;5081631;28;28245;-86
2022/06/01 03:42:33;;;;;;;;;;;;;;;;;;5075015;28;28571;-86
2022/06/01 03:47:42;;;;;;;;;;;;;;;;;;5077311;28;28338;-85
2022/06/01 03:50:08;;;;;;;;;;;;;;;;;;5075106;28;28457;-86
2022/06/01 03:52:33;;;;;;;;;;;;;;;;;;5074101;28;28663;-85
2022/06/01 03:54:58;;;;;;;;;;;;;;;;;;5074373;28;28607;-85
2022/06/01 03:57:23;;;;;;;;;;;;;;;;;;5074777;28;28457;-85
2022/06/01 03:59:48;;;;;;;;;;;;;;;;;;5074537;28;28233;-85
2022/06/01 04:02:14;;;;;;;;;;;;;;;;;;5074402;28;28423;-85
2022/06/01 04:04:39;;;;;;;;;;;;;;;;;;5074619;28;28255;-86
2022/06/01 04:07:04;;;;;;;;;;;;;;;;;;5086531;28;28269;-85
2022/06/01 04:09:29;;;;;;;;;;;;;;;;;;5093982;28;28374;-86
2022/06/01 04:11:54;;;;;;;;;;;;;;;;;;5073730;28;28439;-85
2022/06/01 04:14:19;;;;;;;;;;;;;;;;;;5077513;28;28789;-86
2022/06/01 04:16:44;;;;;;;;;;;;;;;;;;5082923;28;28457;-85
2022/06/01 04:19:09;;;;;;;;;;;;;;;;;;5076949;28;28351;-85
2022/06/01 04:21:35;;;;;;;;;;;;;;;;;;5078080;28;29461;-86
2022/06/01 04:24:00;;;;;;;;;;;;;;;;;;5077875;28;28525;-86
2022/06/01 04:26:25;;;;;;;;;;;;;;;;;;5078010;28;28259;-86
2022/06/01 04:28:50;;;;;;;;;;;;;;;;;;5078069;28;28313;-86
2022/06/01 04:31:16;;;;;;;;;;;;;;;;;;5077038;28;28591;-86
2022/06/01 04:33:41;;;;;;;;;;;;;;;;;;5077938;28;28603;-86
2022/06/01 04:36:06;;;;;;;;;;;;;;;;;;5081364;28;27790;-86
2022/06/01 04:38:31;;;;;;;;;;;;;;;;;;5087989;28;28355;-86
2022/06/01 04:40:56;;;;;;;;;;;;;;;;;;5075681;28;29271;-86
2022/06/01 04:43:21;;;;;;;;;;;;;;;;;;5077696;28;28303;-86
2022/06/01 04:45:46;;;;;;;;;;;;;;;;;;5077916;28;28358;-86
2022/06/01 04:48:11;;;;;;;;;;;;;;;;;;5077563;28;28437;-86
2022/06/01 04:50:42;;;;;;;;;;;;;;;;;;5077148;28;28626;-86
2022/06/01 04:53:07;;;;;;;;;;;;;;;;;;5076981;28;28313;-86
2022/06/01 04:55:32;;;;;;;;;;;;;;;;;;5109376;27;28677;-87
2022/06/01 04:57:57;;;;;;;;;;;;;;;;;;5077268;28;28362;-87
2022/06/01 05:00:23;;;;;;;;;;;;;;;;;;5076265;28;29368;-87
2022/06/01 05:02:48;;;;;;;;;;;;;;;;;;5076450;28;28257;-87
2022/06/01 05:05:13;;;;;;;;;;;;;;;;;;5076938;28;28232;-87
2022/06/01 05:07:38;;;;;;;;;;;;;;;;;;5077495;28;28247;-87
2022/06/01 05:10:03;;;;;;;;;;;;;;;;;;5076233;28;28479;-87
2022/06/01 05:12:28;;;;;;;;;;;;;;;;;;5076472;28;28321;-87
2022/06/01 05:14:53;;;;;;;;;;;;;;;;;;5076555;28;28493;-86
2022/06/01 05:17:19;;;;;;;;;;;;;;;;;;5077031;28;28332;-86
2022/06/01 05:19:44;;;;;;;;;;;;;;;;;;5075409;28;28452;-87
2022/06/01 05:22:09;;;;;;;;;;;;;;;;;;5076123;28;28551;-87
2022/06/01 05:24:34;;;;;;;;;;;;;;;;;;5076278;28;28374;-89
2022/06/01 05:26:59;;;;;;;;;;;;;;;;;;5077040;28;28295;-90
2022/06/01 05:29:24;;;;;;;;;;;;;;;;;;5076007;28;28629;-88
2022/06/01 05:31:49;;;;;;;;;;;;;;;;;;5076137;28;28286;-89
2022/06/01 05:34:14;;;;;;;;;;;;;;;;;;5076671;28;28343;-89
2022/06/01 05:36:40;;;;;;;;;;;;;;;;;;5076107;28;28305;-89
2022/06/01 05:39:05;;;;;;;;;;;;;;;;;;5076694;28;28386;-89
2022/06/01 05:41:30;;;;;;;;;;;;;;;;;;5076371;28;28544;-88
2022/06/01 05:43:55;;;;;;;;;;;;;;;;;;5076559;28;28532;-89
2022/06/01 05:46:20;;;;;;;;;;;;;;;;;;5076321;28;28225;-89
2022/06/01 05:48:45;;;;;;;;;;;;;;;;;;5076746;28;28507;-90
2022/06/01 05:51:10;;;;;;;;;;;;;;;;;;5076095;28;28268;-90
2022/06/01 05:53:35;;;;;;;;;;;;;;;;;;5076385;28;28236;-89
2022/06/01 05:56:01;;;;;;;;;;;;;;;;;;5094732;28;28290;-90
2022/06/01 05:58:26;;;;;;;;;;;;;;;;;;5076070;28;29263;-88
2022/06/01 06:00:51;;;;;;;;;;;;;;;;;;5076316;28;28497;-89
2022/06/01 06:03:16;;;;;;;;;;;;;;;;;;5076162;28;28236;-87
2022/06/01 06:08:24;;;;;;;;;;;;;;;;;;5076129;28;28728;-86
2022/06/01 06:10:50;;;;;;;;;;;;;;;;;;5095982;28;28378;-86
2022/06/01 06:13:15;;;;;;;;;;;;;;;;;;5096479;28;28303;-85
2022/06/01 06:15:40;;;;;;;;;;;;;;;;;;5085967;28;28418;-85
2022/06/01 06:18:06;;;;;;;;;;;;;;;;;;5086060;28;29281;-85
2022/06/01 06:20:32;;;;;;;;;;;;;;;;;;5076637;27;28422;-85
2022/06/01 06:22:57;;;;;;;;;;;;;;;;;;5076403;28;28428;-85
2022/06/01 06:25:22;;;;;;;;;;;;;;;;;;5075934;28;28385;-85
2022/06/01 06:27:47;;;;;;;;;;;;;;;;;;5075773;28;28520;-85
2022/06/01 06:30:12;;;;;;;;;;;;;;;;;;5088716;28;28550;-85
2022/06/01 06:32:37;;;;;;;;;;;;;;;;;;5096005;28;28387;-85
2022/06/01 06:35:02;;;;;;;;;;;;;;;;;;5096323;28;28330;-85
2022/06/01 06:37:27;;;;;;;;;;;;;;;;;;5094251;28;29173;-85
2022/06/01 06:39:52;;;;;;;;;;;;;;;;;;5085544;28;27893;-85
2022/06/01 06:42:19;;;;;;;;;;;;;;;;;;5074350;28;28453;-85
2022/06/01 06:44:44;;;;;;;;;;;;;;;;;;5080303;28;28964;-86
2022/06/01 06:47:09;;;;;;;;;;;;;;;;;;5090467;28;28397;-87
2022/06/01 06:49:34;;;;;;;;;;;;;;;;;;5075513;28;28246;-85
2022/06/01 06:51:59;;;;;;;;;;;;;;;;;;5075640;28;28418;-86
2022/06/01 06:54:25;;;;;;;;;;;;;;;;;;5076676;28;28549;-85
2022/06/01 06:56:50;;;;;;;;;;;;;;;;;;5075561;28;29476;-85
2022/06/01 06:59:16;;;;;;;;;;;;;;;;;;5075346;28;28354;-86
2022/06/01 07:01:42;;;;;;;;;;;;;;;;;;5075143;28;28553;-85
2022/06/01 07:04:07;;;;;;;;;;;;;;;;;;5075598;28;28501;-86
2022/06/01 07:06:32;;;;;;;;;;;;;;;;;;5075345;28;29389;-87
2022/06/01 07:09:00;;;;;;;;;;;;;;;;;;5076262;28;28358;-86
2022/06/01 07:11:25;;;;;;;;;;;;;;;;;;5075218;28;28306;-86
2022/06/01 07:13:50;;;;;;;;;;;;;;;;;;5075562;28;28228;-86
2022/06/01 07:16:16;;;;;;;;;;;;;;;;;;5077177;28;29062;-85
2022/06/01 07:18:41;;;;;;;;;;;;;;;;;;5084877;28;28267;-85
2022/06/01 07:21:06;;;;;;;;;;;;;;;;;;5075385;28;28216;-85
2022/06/01 07:23:31;;;;;;;;;;;;;;;;;;5075196;28;28278;-85
2022/06/01 07:25:56;;;;;;;;;;;;;;;;;;5073978;28;28328;-85
2022/06/01 07:28:22;;;;;;;;;;;;;;;;;;5080578;28;28310;-85
2022/06/01 07:30:49;;;;;;;;;;;;;;;;;;5074688;28;28472;-85
2022/06/01 07:33:14;;;;;;;;;;;;;;;;;;5085316;28;28537;-86
2022/06/01 07:35:39;;;;;;;;;;;;;;;;;;5095452;28;28445;-86
2022/06/01 07:43:32;;;;;;;;;;;;;;;;;;5083275;28;28449;-85
2022/06/01 07:45:57;;;;;;;;;;;;;;;;;;5074171;28;28553;-85
2022/06/01 07:48:22;;;;;;;;;;;;;;;;;;5074052;28;28493;-86
2022/06/01 07:50:47;;;;;;;;;;;;;;;;;;5075182;28;28449;-86
2022/06/01 07:53:12;;;;;;;;;;;;;;;;;;5086033;28;28438;-85
2022/06/01 07:55:37;;;;;;;;;;;;;;;;;;5098094;28;28527;-85
2022/06/01 07:58:02;;;;;;;;;;;;;;;;;;5097918;28;28403;-85
2022/06/01 08:00:28;;;;;;;;;;;;;;;;;;5083448;28;28313;-86
2022/06/01 08:02:53;;;;;;;;;;;;;;;;;;5093637;28;28392;-86
2022/06/01 08:05:18;;;;;;;;;;;;;;;;;;5098674;28;28496;-86
2022/06/01 08:07:43;;;;;;;;;;;;;;;;;;5098659;28;28353;-86
2022/06/01 08:10:08;;;;;;;;;;;;;;;;;;5079311;28;28338;-86
2022/06/01 08:15:17;;;;;;;;;;;;;;;;;;5077967;28;28807;-86
2022/06/01 08:17:44;;;;;;;;;;;;;;;;;;5079237;28;28354;-85
2022/06/01 08:20:11;;;;;;;;;;;;;;;;;;5078130;28;28532;-86
2022/06/01 08:22:36;;;;;;;;;;;;;;;;;;5078316;28;28426;-86
2022/06/01 08:25:01;;;;;;;;;;;;;;;;;;5077660;28;28462;-86
2022/06/01 08:27:26;;;;;;;;;;;;;;;;;;5077827;28;27914;-86
2022/06/01 08:29:51;;;;;;;;;;;;;;;;;;5077827;28;28377;-86
2022/06/01 08:32:16;;;;;;;;;;;;;;;;;;5077990;28;28446;-87
2022/06/01 08:34:42;;;;;;;;;;;;;;;;;;5077768;28;28522;-86
2022/06/01 08:37:07;;;;;;;;;;;;;;;;;;5084161;28;28500;-87
2022/06/01 08:39:32;;;;;;;;;;;;;;;;;;5079282;28;28367;-87
2022/06/01 08:41:57;;;;;;;;;;;;;;;;;;5080314;28;28315;-87
2022/06/01 08:44:22;;;;;;;;;;;;;;;;;;5077676;28;28244;-86
2022/06/01 08:46:47;;;;;;;;;;;;;;;;;;5077581;28;28252;-87
2022/06/01 08:49:12;;;;;;;;;;;;;;;;;;5077248;28;28361;-87
2022/06/01 08:51:37;;;;;;;;;;;;;;;;;;5077262;28;28345;-87
2022/06/01 08:54:02;;;;;;;;;;;;;;;;;;5077301;28;29581;-87
2022/06/01 08:56:27;;;;;;;;;;;;;;;;;;5077098;28;28504;-86
2022/06/01 08:58:53;;;;;;;;;;;;;;;;;;5103010;27;28362;-87
2022/06/01 09:01:18;;;;;;;;;;;;;;;;;;5066434;28;28237;-87
2022/06/01 09:03:43;;;;;;;;;;;;;;;;;;5076392;28;28366;-86
2022/06/01 09:06:08;;;;;;;;;;;;;;;;;;5077146;28;28454;-86
2022/06/01 09:08:34;;;;;;;;;;;;;;;;;;5077521;28;28274;-87
2022/06/01 09:10:59;;;;;;;;;;;;;;;;;;5077074;28;28236;-87
2022/06/01 09:13:24;;;;;;;;;;;;;;;;;;5076932;28;28347;-87
2022/06/01 09:15:49;;;;;;;;;;;;;;;;;;5077005;28;28247;-88
2022/06/01 09:18:14;;;;;;;;;;;;;;;;;;5076983;28;28375;-87
2022/06/01 09:23:23;;;;;;;;;;;;;;;;;;5076986;28;28403;-87
2022/06/01 09:25:50;;;;;;;;;;;;;;;;;;5076657;28;28310;-87
2022/06/01 09:28:15;;;;;;;;;;;;;;;;;;5075842;28;28489;-86
2022/06/01 09:30:41;;;;;;;;;;;;;;;;;;5076666;28;28644;-88
2022/06/01 09:33:06;;;;;;;;;;;;;;;;;;5075985;28;29601;-88
2022/06/01 09:35:33;;;;;;;;;;;;;;;;;;5076519;28;28233;-87
2022/06/01 09:37:58;;;;;;;;;;;;;;;;;;5076721;28;28452;-87
2022/06/01 09:40:24;;;;;;;;;;;;;;;;;;5076921;28;28378;-87
2022/06/01 09:42:49;;;;;;;;;;;;;;;;;;5092299;28;29057;-88
2022/06/01 09:45:14;;;;;;;;;;;;;;;;;;5076407;28;28444;-87
2022/06/01 09:47:39;;;;;;;;;;;;;;;;;;5076348;28;28380;-88
2022/06/01 09:50:05;;;;;;;;;;;;;;;;;;5076161;28;28429;-88
2022/06/01 09:52:31;;;;;;;;;;;;;;;;;;5075748;28;28680;-88
2022/06/01 09:54:56;;;;;;;;;;;;;;;;;;5075950;28;28861;-88
2022/06/01 09:57:21;;;;;;;;;;;;;;;;;;5076295;28;28357;-88
2022/06/01 10:07:58;;;;;;;;;;;;;;;;;;5076181;28;28422;-87
2022/06/01 10:10:23;;;;;;;;;;;;;;;;;;5082430;28;28396;-87
2022/06/01 10:12:48;;;;;;;;;;;;;;;;;;5080582;28;29581;-88
2022/06/01 10:15:13;;;;;;;;;;;;;;;;;;5075413;28;28533;-87
2022/06/01 10:17:38;;;;;;;;;;;;;;;;;;5075734;28;28485;-87
2022/06/01 10:20:03;;;;;;;;;;;;;;;;;;5077315;28;28318;-88
2022/06/01 10:22:29;;;;;;;;;;;;;;;;;;5075466;28;28573;-87
2022/06/01 10:24:54;;;;;;;;;;;;;;;;;;5075345;28;28496;-87
2022/06/01 10:27:20;;;;;;;;;;;;;;;;;;5075443;28;28553;-87
2022/06/01 10:29:45;;;;;;;;;;;;;;;;;;5075981;28;28323;-86
2022/06/01 10:32:10;;;;;;;;;;;;;;;;;;5075428;28;29121;-91
2022/06/01 10:34:36;;;;;;;;;;;;;;;;;;5075604;28;28377;-87
2022/06/01 10:37:01;;;;;;;;;;;;;;;;;;5088447;28;28393;-85
2022/06/01 10:39:26;;;;;;;;;;;;;;;;;;5080658;28;28376;-86
2022/06/01 10:41:51;;;;;;;;;;;;;;;;;;5090414;28;28601;-88
2022/06/01 10:44:16;;;;;;;;;;;;;;;;;;5084903;28;28295;-88
2022/06/01 10:46:42;;;;;;;;;;;;;;;;;;5078463;28;28248;-89
2022/06/01 10:49:07;;;;;;;;;;;;;;;;;;5075486;28;28307;-89
2022/06/01 10:51:32;;;;;;;;;;;;;;;;;;5065996;28;28535;-87
2022/06/01 10:53:58;;;;;;;;;;;;;;;;;;5075174;28;28380;-86
2022/06/01 10:56:23;;;;;;;;;;;;;;;;;;5074929;28;28592;-85
2022/06/01 10:58:48;;;;;;;;;;;;;;;;;;5075493;28;28341;-89
2022/06/01 11:01:15;;;;;;;;;;;;;;;;;;5075010;28;28677;-88
2022/06/01 11:03:40;;;;;;;;;;;;;;;;;;5077059;28;28254;-87
2022/06/01 11:06:05;;;;;;;;;;;;;;;;;;5075742;28;28289;-89
2022/06/01 11:08:30;;;;;;;;;;;;;;;;;;5075585;28;28228;-89
2022/06/01 11:10:55;;;;;;;;;;;;;;;;;;5075464;28;28520;-90
2022/06/01 11:13:20;;;;;;;;;;;;;;;;;;5074623;28;28496;-88
2022/06/01 11:15:45;;;;;;;;;;;;;;;;;;5075460;28;28276;-89
2022/06/01 11:18:11;;;;;;;;;;;;;;;;;;5075106;28;28336;-94
2022/06/01 11:20:36;;;;;;;;;;;;;;;;;;5074665;28;29098;-83
2022/06/01 11:23:02;;;;;;;;;;;;;;;;;;5075240;28;28402;-83
2022/06/01 11:25:27;;;;;;;;;;;;;;;;;;5075319;28;28407;-86
2022/06/01 11:27:52;;;;;;;;;;;;;;;;;;5077332;28;28651;-86
2022/06/01 11:30:17;;;;;;;;;;;;;;;;;;5078413;28;29130;-86
2022/06/01 11:32:42;;;;;;;;;;;;;;;;;;5078261;28;28397;-85
2022/06/01 11:35:08;;;;;;;;;;;;;;;;;;5078812;28;28303;-84
2022/06/01 11:37:33;;;;;;;;;;;;;;;;;;5078377;28;28460;-84
2022/06/01 11:39:58;;;;;;;;;;;;;;;;;;5078286;28;28340;-85
2022/06/01 11:42:24;;;;;;;;;;;;;;;;;;5078055;28;28323;-83
2022/06/01 11:44:49;;;;;;;;;;;;;;;;;;5078769;28;28390;-84
2022/06/01 11:47:14;;;;;;;;;;;;;;;;;;5079032;28;28560;-84
2022/06/01 11:49:39;;;;;;;;;;;;;;;;;;5078232;28;29215;-83
2022/06/01 11:52:04;;;;;;;;;;;;;;;;;;5077451;28;28414;-84
2022/06/01 11:54:29;;;;;;;;;;;;;;;;;;5076918;28;28434;-84
2022/06/01 11:56:54;;;;;;;;;;;;;;;;;;5110589;27;28358;-86
2022/06/01 11:59:19;;;;;;;;;;;;;;;;;;5076657;28;28553;-87
2022/06/01 12:01:45;;;;;;;;;;;;;;;;;;5077065;28;28508;-85
2022/06/01 12:04:11;;;;;;;;;;;;;;;;;;5076020;28;28881;-87
2022/06/01 12:06:36;;;;;;;;;;;;;;;;;;5072421;28;28359;-86
2022/06/01 12:09:01;;;;;;;;;;;;;;;;;;5077102;28;28546;-85
2022/06/01 12:11:27;;;;;;;;;;;;;;;;;;5076563;28;28432;-85
2022/06/01 12:13:53;;;;;;;;;;;;;;;;;;5076990;28;28372;-87
2022/06/01 12:16:18;;;;;;;;;;;;;;;;;;5077403;28;28434;-86
2022/06/01 12:18:43;;;;;;;;;;;;;;;;;;5076401;28;29479;-84
2022/06/01 12:21:08;;;;;;;;;;;;;;;;;;5076675;28;28363;-85
2022/06/01 12:29:04;;;;;;;;;;;;;;;;;;5076030;28;28795;-84
2022/06/01 12:31:29;;;;;;;;;;;;;;;;;;5076339;28;28961;-84
2022/06/01 12:33:57;;;;;;;;;;;;;;;;;;5075619;28;28447;-83
2022/06/01 12:36:22;;;;;;;;;;;;;;;;;;5077033;28;28595;-84
2022/06/01 12:38:50;;;;;;;;;;;;;;;;;;5076496;28;29327;-88
2022/06/01 12:41:19;;;;;;;;;;;;;;;;;;5076977;28;28409;-87
2022/06/01 12:43:44;;;;;;;;;;;;;;;;;;5089601;28;28454;-83
2022/06/01 12:46:11;;;;;;;;;;;;;;;;;;5076015;28;28611;-86
2022/06/01 12:48:37;;;;;;;;;;;;;;;;;;5076064;28;28550;-87
2022/06/01 12:51:02;;;;;;;;;;;;;;;;;;5076304;28;28707;-85
2022/06/01 12:53:27;;;;;;;;;;;;;;;;;;5077180;28;28480;-86
2022/06/01 12:55:52;;;;;;;;;;;;;;;;;;5077063;28;28437;-86
2022/06/01 12:58:17;;;;;;;;;;;;;;;;;;5076749;28;28452;-85
2022/06/01 13:00:42;;;;;;;;;;;;;;;;;;5076339;28;28444;-88
2022/06/01 13:03:08;;;;;;;;;;;;;;;;;;5076416;28;28320;-86
2022/06/01 13:05:34;;;;;;;;;;;;;;;;;;5076399;28;27815;-86
2022/06/01 13:08:01;;;;;;;;;;;;;;;;;;5076350;28;28483;-87
2022/06/01 13:10:28;;;;;;;;;;;;;;;;;;5075940;28;28520;-88
2022/06/01 13:12:54;;;;;;;;;;;;;;;;;;5075605;28;28434;-88
2022/06/01 13:15:19;;;;;;;;;;;;;;;;;;5075082;28;28633;-88
2022/06/01 13:17:44;;;;;;;;;;;;;;;;;;5076617;28;29551;-88
2022/06/01 13:20:09;;;;;;;;;;;;;;;;;;5076419;28;28391;-87
2022/06/01 13:22:35;;;;;;;;;;;;;;;;;;5075736;28;28393;-87
2022/06/01 13:25:00;;;;;;;;;;;;;;;;;;5076409;28;28244;-87
2022/06/01 13:27:25;;;;;;;;;;;;;;;;;;5076407;28;28473;-87
2022/06/01 13:29:52;;;;;;;;;;;;;;;;;;5076641;28;28481;-89
2022/06/01 13:32:17;;;;;;;;;;;;;;;;;;5076876;28;28523;-90
2022/06/01 13:34:42;;;;;;;;;;;;;;;;;;5076894;28;28500;-89
2022/06/01 13:37:07;;;;;;;;;;;;;;;;;;5075382;28;28529;-90
2022/06/01 13:39:32;;;;;;;;;;;;;;;;;;5076567;28;28472;-90
2022/06/01 13:41:58;;;;;;;;;;;;;;;;;;5076850;28;28329;-94
2022/06/01 13:44:23;;;;;;;;;;;;;;;;;;5075574;28;28569;-91
2022/06/01 13:46:48;;;;;;;;;;;;;;;;;;5075139;28;28719;-92
2022/06/01 13:49:14;;;;;;;;;;;;;;;;;;5075187;28;28838;-90
2022/06/01 13:51:39;;;;;;;;;;;;;;;;;;5076878;28;28523;-90
2022/06/01 13:54:07;;;;;;;;;;;;;;;;;;5077319;28;28437;-93
2022/06/01 13:56:32;;;;;;;;;;;;;;;;;;5075675;28;29890;-93
2022/06/01 13:58:58;;;;;;;;;;;;;;;;;;5075213;28;28371;-92
2022/06/01 14:01:24;;;;;;;;;;;;;;;;;;5075888;28;28360;-94
2022/06/01 14:03:52;;;;;;;;;;;;;;;;;;5075834;28;28522;-93
2022/06/01 14:06:17;;;;;;;;;;;;;;;;;;5075674;28;29927;-94
2022/06/01 14:08:42;;;;;;;;;;;;;;;;;;5076159;28;29534;-94
2022/06/01 14:11:07;;;;;;;;;;;;;;;;;;5075388;28;28408;-91
2022/06/01 14:13:32;;;;;;;;;;;;;;;;;;5072803;28;28328;-91
2022/06/01 14:15:57;;;;;;;;;;;;;;;;;;5075782;28;29668;-93
2022/06/01 14:18:26;;;;;;;;;;;;;;;;;;5075997;28;29036;-92
2022/06/01 14:20:51;;;;;;;;;;;;;;;;;;5075711;28;28228;-91
2022/06/01 14:23:16;;;;;;;;;;;;;;;;;;5076245;28;28324;-92
2022/06/01 14:28:31;;;;;;;;;;;;;;;;;;5076437;28;28461;-93
2022/06/01 14:30:56;;;;;;;;;;;;;;;;;;5075409;28;28454;-91
2022/06/01 14:33:21;;;;;;;;;;;;;;;;;;5076114;28;28362;-86
2022/06/01 14:35:46;;;;;;;;;;;;;;;;;;5075294;28;29389;-88
2022/06/01 14:38:11;;;;;;;;;;;;;;;;;;5075233;28;28282;-88
2022/06/01 14:40:37;;;;;;;;;;;;;;;;;;5075274;28;28252;-88
2022/06/01 14:43:02;;;;;;;;;;;;;;;;;;5075976;28;28430;-90
2022/06/01 14:45:30;;;;;;;;;;;;;;;;;;5075497;28;29541;-92
2022/06/01 14:47:58;;;;;;;;;;;;;;;;;;5074323;28;28464;-88
2022/06/01 14:50:23;;;;;;;;;;;;;;;;;;5075610;28;27944;-86
2022/06/01 14:52:48;;;;;;;;;;;;;;;;;;5075321;28;28353;-86
2022/06/01 14:55:14;;;;;;;;;;;;;;;;;;5075243;28;28724;-87
2022/06/01 14:57:42;;;;;;;;;;;;;;;;;;5075573;28;28421;-89
2022/06/01 15:00:07;;;;;;;;;;;;;;;;;;5075057;28;28436;-86
2022/06/01 15:02:32;;;;;;;;;;;;;;;;;;5074438;28;28344;-86
2022/06/01 15:05:01;;;;;;;;;;;;;;;;;;5075227;28;28425;-86
2022/06/01 15:07:26;;;;;;;;;;;;;;;;;;5074925;28;28456;-86
2022/06/01 15:09:51;;;;;;;;;;;;;;;;;;5075014;28;28426;-86
2022/06/01 15:12:16;;;;;;;;;;;;;;;;;;5074968;28;28488;-89
2022/06/01 15:14:44;;;;;;;;;;;;;;;;;;5074392;28;28438;-87
2022/06/01 15:17:09;;;;;;;;;;;;;;;;;;5075240;28;28422;-86
2022/06/01 15:19:34;;;;;;;;;;;;;;;;;;5075051;28;28284;-89
2022/06/01 15:22:02;;;;;;;;;;;;;;;;;;5075289;28;27895;-87
2022/06/01 15:24:27;;;;;;;;;;;;;;;;;;5074700;28;28517;-85
2022/06/01 15:26:52;;;;;;;;;;;;;;;;;;5074853;28;28347;-86
2022/06/01 15:40:12;;;;;;;;;;;;;;;;;;5074821;28;28561;-87
2022/06/01 15:42:37;;;;;;;;;;;;;;;;;;5073205;28;28518;-85
2022/06/01 15:45:05;;;;;;;;;;;;;;;;;;5074136;28;28675;-88
2022/06/01 15:47:30;;;;;;;;;;;;;;;;;;5074844;28;27736;-85
2022/06/01 15:49:56;;;;;;;;;;;;;;;;;;5074695;28;28496;-90
2022/06/01 15:52:21;;;;;;;;;;;;;;;;;;5074709;28;28444;-85
2022/06/01 15:54:46;;;;;;;;;;;;;;;;;;5074546;28;28440;-88
2022/06/01 15:57:11;;;;;;;;;;;;;;;;;;5074798;28;28483;-89
2022/06/01 15:59:36;;;;;;;;;;;;;;;;;;5075496;28;27856;-92
2022/06/01 16:02:01;;;;;;;;;;;;;;;;;;5077442;28;28461;-93
2022/06/01 16:04:27;;;;;;;;;;;;;;;;;;5077498;28;30578;-91
2022/06/01 16:06:52;;;;;;;;;;;;;;;;;;5075675;28;28411;-91
2022/06/01 16:09:17;;;;;;;;;;;;;;;;;;5074729;28;28375;-87
2022/06/01 16:11:42;;;;;;;;;;;;;;;;;;5074565;28;28347;-87
2022/06/01 16:14:08;;;;;;;;;;;;;;;;;;5077049;28;28680;-88
2022/06/01 16:16:33;;;;;;;;;;;;;;;;;;5077793;28;28829;-86
2022/06/01 16:18:58;;;;;;;;;;;;;;;;;;5078145;28;28326;-87
2022/06/01 16:21:24;;;;;;;;;;;;;;;;;;5078235;28;28469;-88
2022/06/01 16:23:49;;;;;;;;;;;;;;;;;;5078018;28;29172;-88
2022/06/01 16:26:14;;;;;;;;;;;;;;;;;;5077913;28;28339;-89
2022/06/01 16:28:39;;;;;;;;;;;;;;;;;;5076485;28;28414;-92
2022/06/01 16:31:07;;;;;;;;;;;;;;;;;;5076443;28;28517;-87
2022/06/01 16:33:32;;;;;;;;;;;;;;;;;;5077734;28;28332;-88
2022/06/01 16:35:59;;;;;;;;;;;;;;;;;;5077916;28;28415;-88
2022/06/01 16:38:24;;;;;;;;;;;;;;;;;;5077780;28;27887;-89
2022/06/01 16:40:49;;;;;;;;;;;;;;;;;;5077836;28;27747;-89
2022/06/01 16:43:14;;;;;;;;;;;;;;;;;;5077929;28;28511;-89
2022/06/01 16:45:41;;;;;;;;;;;;;;;;;;5077683;28;28292;-88
2022/06/01 16:48:06;;;;;;;;;;;;;;;;;;5077456;28;28442;-87
2022/06/01 16:50:31;;;;;;;;;;;;;;;;;;5078064;28;28308;-94
2022/06/01 16:52:56;;;;;;;;;;;;;;;;;;5076468;28;29852;-93
2022/06/01 16:55:21;;;;;;;;;;;;;;;;;;5076182;28;29284;-93
2022/06/01 16:57:46;;;;;;;;;;;;;;;;;;5076379;28;28262;-93
2022/06/01 17:00:11;;;;;;;;;;;;;;;;;;5076110;28;28359;-92
2022/06/01 17:02:37;;;;;;;;;;;;;;;;;;5077541;28;29222;-95
2022/06/01 17:05:02;;;;;;;;;;;;;;;;;;5077682;28;28428;-94
2022/06/01 17:07:27;;;;;;;;;;;;;;;;;;5077513;28;28406;-94
2022/06/01 17:09:53;;;;;;;;;;;;;;;;;;5077486;28;28411;-94
2022/06/01 17:12:18;;;;;;;;;;;;;;;;;;5077259;28;29498;-94
2022/06/01 17:14:43;;;;;;;;;;;;;;;;;;5075838;28;28411;-93
2022/06/01 17:17:08;;;;;;;;;;;;;;;;;;5075813;28;28391;-92
2022/06/01 17:19:34;;;;;;;;;;;;;;;;;;5077384;28;28377;-93
2022/06/01 17:21:59;;;;;;;;;;;;;;;;;;5077013;28;28341;-93
2022/06/01 17:24:24;;;;;;;;;;;;;;;;;;5077262;28;28398;-87
2022/06/01 17:26:49;;;;;;;;;;;;;;;;;;5076714;28;28383;-86